IVAO ES Tour IFR-A 2013 Etapa 10

IVAO ES Tour IFR-A 2013 Etapa 10

Alicante ( LEAL ) – La Coruña ( LECO )

Datos generales del vuelo
 Fecha 28-11-2013  Avión  B737-800 winglets
 Ruta ASTRO UL150 CJN UN733 FORNO  Nivel de vuelo FL360
 Origen LEAL  Destino LECO
 Velocidad M0.793  Distancia 520Nm
 Distancia real 465Nm ETE 01:20
 ETA 10:50Z  FOB 03:00
 Hora salida 09:35Z Hora llegada 11:05Z
 Pax 156 TOW 68368Kg
 MTOW  78471Kg Fuel 8220Kg
 Fuel utilizado 4047Kg ZFW 60147Kg
Peso carga 8065Kg Peso pasaje 10669Kg
V1 132Knots Vr 142Knots
 V2 151Knots  Vref 148Knots
 Velocidad vertical toma
280,77 ft/m  

 

Datos LEAL

Metar: LEAL 280900Z 35009KT 9999 SCT039 BKN045 11/06 Q1027 NOSIG
Pista Activa: 10
Salida: ASTRO4A

Datos LECO

Metar: LECO 281000Z 00000KT CAVOK 07/03 Q1029
Pista Activa: 21
Llegada: FORNO1J
App:  ILZ Z RWY21 transición BERAX

 

 

 

Deja una respuesta